createdAt,value
2016-09-18T00:02:28.128Z,74.96
2016-09-18T00:07:24.679Z,75.69
2016-09-18T00:12:21.804Z,75.98
2016-09-18T00:17:18.866Z,75.63
2016-09-18T00:22:15.502Z,75.69
2016-09-18T00:27:12.164Z,76.56
2016-09-18T00:32:08.697Z,77.04
2016-09-18T00:37:05.271Z,77.19
2016-09-18T00:42:02.258Z,77.76
2016-09-18T00:46:58.792Z,77.58
2016-09-18T00:51:55.421Z,78.06
2016-09-18T00:56:51.805Z,77.76
2016-09-18T01:01:48.781Z,78.15
2016-09-18T01:06:45.149Z,79.46
2016-09-18T01:11:41.676Z,79.36
2016-09-18T01:16:38.347Z,79.94
2016-09-18T01:21:35.014Z,80.32
2016-09-18T01:26:31.618Z,80.32
2016-09-18T01:31:28.010Z,79.46
2016-09-18T01:36:24.675Z,79.27
2016-09-18T01:41:21.357Z,79.17
2016-09-18T01:46:17.934Z,78.83
2016-09-18T01:51:14.730Z,78.15
2016-09-18T01:56:13.818Z,78.53
2016-09-18T02:01:09.818Z,78.53
2016-09-18T02:06:06.400Z,79.02
2016-09-18T02:11:02.966Z,78.63
2016-09-18T02:16:00.037Z,79.21
2016-09-18T02:20:59.129Z,78.15
2016-09-18T02:25:55.001Z,78.25
2016-09-18T02:30:51.555Z,78.88
2016-09-18T02:35:48.723Z,79.07
2016-09-18T02:40:45.261Z,79.84
2016-09-18T02:45:44.263Z,79.46
2016-09-18T02:50:40.382Z,79.94
2016-09-18T02:55:37.059Z,79.36
2016-09-18T03:00:33.724Z,79.36
2016-09-18T03:05:30.322Z,79.27
2016-09-18T03:10:26.985Z,79.46
2016-09-18T03:15:23.479Z,79.02
2016-09-18T03:20:20.357Z,78.73
2016-09-18T03:25:17.247Z,77.96
2016-09-18T03:30:13.829Z,77.96
2016-09-18T03:35:10.683Z,77.86
2016-09-18T03:40:06.939Z,78.44
2016-09-18T03:45:03.790Z,78.69
2016-09-18T03:50:00.745Z,77.86
2016-09-18T03:54:57.706Z,77.96
2016-09-18T03:59:54.328Z,78.30
2016-09-18T04:04:50.900Z,77.96
2016-09-18T04:09:47.395Z,77.58
2016-09-18T04:14:44.015Z,78.25
2016-09-18T04:19:40.523Z,78.69
2016-09-18T04:24:37.124Z,78.78
2016-09-18T04:29:33.717Z,79.46
2016-09-18T04:34:30.257Z,78.59
2016-09-18T04:39:26.566Z,78.98
2016-09-18T04:44:23.317Z,79.07
2016-09-18T04:49:20.190Z,77.92
2016-09-18T04:54:16.705Z,77.06
2016-09-18T04:59:13.206Z,76.67
2016-09-18T05:04:10.087Z,76.14
2016-09-18T05:09:06.814Z,76.32
2016-09-18T05:14:03.542Z,76.14
2016-09-18T05:19:00.035Z,75.94
2016-09-18T05:23:56.651Z,75.81
2016-09-18T05:28:53.228Z,75.75
2016-09-18T05:33:49.600Z,75.75
2016-09-18T05:38:46.516Z,75.75
2016-09-18T05:43:43.186Z,75.71
2016-09-18T05:48:39.750Z,75.71
2016-09-18T05:53:36.227Z,75.81
2016-09-18T05:58:33.343Z,75.62
2016-09-18T06:03:29.661Z,75.62
2016-09-18T06:08:26.140Z,74.85
2016-09-18T06:13:23.177Z,75.52
2016-09-18T06:18:19.813Z,74.85
2016-09-18T06:23:16.502Z,75.81
2016-09-18T06:28:12.999Z,75.42
2016-09-18T06:33:09.826Z,75.32
2016-09-18T06:38:06.223Z,75.62
2016-09-18T06:43:03.225Z,75.71
2016-09-18T06:47:59.836Z,76.54
2016-09-18T06:52:56.330Z,75.71
2016-09-18T06:57:52.960Z,75.90
2016-09-18T07:02:49.518Z,75.32
2016-09-18T07:12:46.614Z,75.42
2016-09-18T07:17:43.011Z,74.94
2016-09-18T07:22:40.082Z,75.42
2016-09-18T07:27:37.384Z,75.32
2016-09-18T07:32:33.794Z,74.75
2016-09-18T07:37:30.415Z,75.52
2016-09-18T07:42:27.368Z,75.52
2016-09-18T07:47:23.982Z,75.52
2016-09-18T07:52:20.762Z,75.41
2016-09-18T07:57:17.669Z,67.13
2016-09-18T08:02:14.496Z,70.34
2016-09-18T08:07:11.277Z,70.59
2016-09-18T08:12:07.800Z,70.40
2016-09-18T08:17:04.603Z,70.82
2016-09-18T08:22:02.441Z,68.74
2016-09-18T08:26:59.877Z,82.67
2016-09-18T08:31:55.518Z,85.06
2016-09-18T08:36:51.614Z,84.30
2016-09-18T08:41:47.722Z,83.95
2016-09-18T08:46:44.559Z,83.95
2016-09-18T08:51:42.075Z,82.37
2016-09-18T08:56:38.815Z,81.70
2016-09-18T09:01:35.521Z,81.02
2016-09-18T09:06:32.503Z,81.41
2016-09-18T09:11:28.853Z,81.75
2016-09-18T09:16:25.586Z,83.29
2016-09-18T09:21:22.357Z,82.90
2016-09-18T09:26:18.901Z,82.62
2016-09-18T09:31:16.104Z,81.41
2016-09-18T09:36:13.445Z,79.91
2016-09-18T09:41:10.285Z,80.58
2016-09-18T09:46:07.233Z,79.63
2016-09-18T09:51:05.671Z,78.90
2016-09-18T09:56:02.174Z,78.03
2016-09-18T10:00:59.179Z,77.56
2016-09-18T10:05:55.936Z,78.52
2016-09-18T10:10:52.937Z,75.77
2016-09-18T10:15:50.380Z,74.46
2016-09-18T10:20:47.160Z,73.50
2016-09-18T10:25:44.374Z,74.43
2016-09-18T10:30:41.094Z,73.31
2016-09-18T10:35:38.487Z,71.61
2016-09-18T10:40:37.302Z,70.68
2016-09-18T10:45:37.559Z,68.86
2016-09-18T10:50:33.784Z,70.56
2016-09-18T10:55:33.246Z,67.65
2016-09-18T11:00:34.657Z,58.32
2016-09-18T11:05:37.733Z,58.70
2016-09-18T11:10:35.432Z,58.39
2016-09-18T11:15:31.478Z,65.08
2016-09-18T11:20:33.058Z,55.90
2016-09-18T11:25:31.984Z,57.59
2016-09-18T11:30:31.493Z,50.84
2016-09-18T11:35:24.748Z,57.17
2016-09-18T11:40:16.256Z,61.74
2016-09-18T11:45:12.597Z,64.05
2016-09-18T11:50:08.729Z,63.28
2016-09-18T11:55:11.823Z,51.90
2016-09-18T12:00:11.904Z,48.15
2016-09-18T12:05:03.699Z,55.98
2016-09-18T12:09:55.111Z,62.32
2016-09-18T12:14:49.680Z,64.43
2016-09-18T12:19:44.625Z,66.52
2016-09-18T12:24:45.864Z,59.75
2016-09-18T12:29:40.463Z,62.38
2016-09-18T12:34:37.445Z,63.22
2016-09-18T12:39:33.387Z,63.34
2016-09-18T12:44:29.909Z,60.55
2016-09-18T12:49:26.665Z,61.55
2016-09-18T12:54:22.725Z,61.00
2016-09-18T12:59:18.857Z,61.94
2016-09-18T13:04:15.646Z,61.26
2016-09-18T13:09:12.127Z,61.29
2016-09-18T13:14:09.474Z,59.75
2016-09-18T13:19:06.887Z,58.24
2016-09-18T13:24:03.510Z,59.01
2016-09-18T13:28:59.632Z,60.04
2016-09-18T13:33:57.321Z,60.91
2016-09-18T13:38:53.897Z,61.19
2016-09-18T13:43:50.270Z,60.97
2016-09-18T13:48:47.737Z,58.22
2016-09-18T13:53:45.187Z,56.60
2016-09-18T13:58:45.892Z,56.05
2016-09-18T14:03:42.194Z,57.09
2016-09-18T14:08:38.335Z,58.22
2016-09-18T14:13:34.748Z,59.37
2016-09-18T14:18:31.023Z,59.75
2016-09-18T14:23:27.744Z,58.22
2016-09-18T14:28:24.936Z,55.83
2016-09-18T14:33:21.884Z,55.16
2016-09-18T14:38:19.677Z,55.45
2016-09-18T14:43:16.135Z,56.67
2016-09-18T14:48:12.791Z,57.92
2016-09-18T14:53:09.422Z,57.64
2016-09-18T14:58:07.363Z,58.31
2016-09-18T15:03:03.766Z,57.73
2016-09-18T15:08:03.615Z,58.37
2016-09-18T15:12:59.447Z,58.76
2016-09-18T15:17:56.001Z,59.72
2016-09-18T15:22:58.330Z,60.49
2016-09-18T15:27:54.918Z,59.72
2016-09-18T15:32:51.481Z,59.72
2016-09-18T15:37:48.291Z,59.72
2016-09-18T15:42:45.932Z,60.30
2016-09-18T15:47:42.630Z,60.11
2016-09-18T15:52:39.660Z,59.60
2016-09-18T16:02:38.850Z,60.94
2016-09-18T16:07:36.609Z,61.14
2016-09-18T16:12:33.043Z,60.75
2016-09-18T16:17:29.642Z,61.14
2016-09-18T16:22:26.382Z,62.19
2016-09-18T16:27:23.466Z,61.78
2016-09-18T16:32:20.066Z,62.16
2016-09-18T16:37:17.490Z,63.22
2016-09-18T16:42:13.768Z,62.74
2016-09-18T16:47:10.073Z,62.93
2016-09-18T16:52:06.940Z,63.22
2016-09-18T16:57:03.665Z,63.09
2016-09-18T17:02:00.277Z,63.51
2016-09-18T17:06:56.722Z,63.57
2016-09-18T17:11:53.473Z,63.67
2016-09-18T17:16:49.876Z,63.19
2016-09-18T17:21:46.506Z,63.38
2016-09-18T17:26:42.714Z,63.76
2016-09-18T17:31:39.195Z,64.31
2016-09-18T17:36:36.475Z,64.31
2016-09-18T17:41:32.921Z,63.83
2016-09-18T17:46:29.221Z,63.54
2016-09-18T17:51:25.789Z,63.06
2016-09-18T17:56:22.273Z,62.68
2016-09-18T18:01:19.118Z,61.91
2016-09-18T18:06:18.841Z,60.66
2016-09-18T18:11:14.892Z,59.96
2016-09-18T18:16:11.936Z,59.86
2016-09-18T18:21:08.382Z,61.49
2016-09-18T18:26:04.873Z,61.02
2016-09-18T18:31:03.965Z,60.15
2016-09-18T18:35:59.926Z,60.05
2016-09-18T18:40:56.292Z,59.96
2016-09-18T18:45:53.086Z,59.67
2016-09-18T18:50:49.839Z,60.44
2016-09-18T18:55:47.711Z,60.63
2016-09-18T19:00:43.992Z,61.11
2016-09-18T19:05:40.531Z,60.72
2016-09-18T19:10:37.146Z,61.08
2016-09-18T19:15:33.521Z,62.26
2016-09-18T19:20:30.102Z,62.16
2016-09-18T19:25:26.324Z,62.81
2016-09-18T19:30:22.873Z,63.00
2016-09-18T19:35:19.926Z,62.42
2016-09-18T19:40:16.432Z,63.00
2016-09-18T19:45:13.679Z,62.62
2016-09-18T19:50:09.944Z,63.48
2016-09-18T19:55:06.532Z,63.38
2016-09-18T20:00:03.567Z,64.15
2016-09-18T20:05:00.262Z,64.05
2016-09-18T20:09:56.985Z,64.82
2016-09-18T20:14:53.357Z,65.08
2016-09-18T20:19:49.504Z,65.08
2016-09-18T20:24:47.349Z,65.65
2016-09-18T20:29:43.725Z,65.65
2016-09-18T20:34:40.273Z,65.75
2016-09-18T20:39:36.926Z,65.65
2016-09-18T20:44:33.280Z,65.55
2016-09-18T20:49:30.093Z,65.46
2016-09-18T20:54:26.576Z,65.36
2016-09-18T20:59:23.199Z,64.79
2016-09-18T21:04:19.801Z,65.46
2016-09-18T21:09:16.218Z,65.65
2016-09-18T21:14:12.800Z,66.29
2016-09-18T21:19:09.477Z,65.81
2016-09-18T21:24:05.916Z,66.19
2016-09-18T21:29:03.025Z,66.29
2016-09-18T21:34:00.011Z,65.23
2016-09-18T21:38:56.838Z,65.71
2016-09-18T21:43:53.385Z,65.62
2016-09-18T21:48:50.862Z,65.42
2016-09-18T21:53:47.042Z,65.33
2016-09-18T21:58:43.411Z,64.95
2016-09-18T22:03:40.317Z,65.05
2016-09-18T22:08:36.858Z,65.23
2016-09-18T22:13:33.703Z,64.85
2016-09-18T22:18:30.302Z,65.23
2016-09-18T22:23:26.773Z,65.71
2016-09-18T22:28:23.292Z,65.71
2016-09-18T22:33:20.424Z,66.29
2016-09-18T22:38:17.005Z,66.58
2016-09-18T22:43:13.624Z,66.29
2016-09-18T22:48:10.277Z,66.96
2016-09-18T22:53:06.693Z,67.50
2016-09-18T22:58:03.344Z,67.41
2016-09-18T23:03:01.719Z,67.79
2016-09-18T23:07:59.362Z,68.21
2016-09-18T23:12:55.938Z,68.21
2016-09-18T23:17:52.348Z,68.74
2016-09-18T23:22:49.792Z,68.68
2016-09-18T23:27:47.676Z,69.13
2016-09-18T23:32:43.869Z,69.51
2016-09-18T23:37:40.573Z,69.89
2016-09-18T23:42:37.363Z,70.09
2016-09-18T23:47:33.777Z,71.14
2016-09-18T23:52:30.395Z,71.23
2016-09-18T23:57:27.197Z,71.81
